sensor_id;sensor_type;location;lat;lon;timestamp;P1;durP1;ratioP1;P2;durP2;ratioP2
10078;SDS011;5078;42.544;22.966;2023-05-10T00:01:20;0.90;;;0.90;;
10078;SDS011;5078;42.544;22.966;2023-05-10T00:03:47;0.60;;;0.60;;
10078;SDS011;5078;42.544;22.966;2023-05-10T00:06:15;1.17;;;1.02;;
10078;SDS011;5078;42.544;22.966;2023-05-10T00:08:42;1.90;;;1.42;;
10078;SDS011;5078;42.544;22.966;2023-05-10T00:11:09;0.82;;;0.82;;
10078;SDS011;5078;42.544;22.966;2023-05-10T00:13:35;1.50;;;1.40;;
10078;SDS011;5078;42.544;22.966;2023-05-10T00:16:02;0.80;;;0.80;;
10078;SDS011;5078;42.544;22.966;2023-05-10T00:18:29;1.13;;;1.10;;
10078;SDS011;5078;42.544;22.966;2023-05-10T00:20:55;0.85;;;0.82;;
10078;SDS011;5078;42.544;22.966;2023-05-10T00:23:24;1.00;;;1.00;;
10078;SDS011;5078;42.544;22.966;2023-05-10T00:25:50;0.90;;;0.90;;
10078;SDS011;5078;42.544;22.966;2023-05-10T00:28:17;0.95;;;0.95;;
10078;SDS011;5078;42.544;22.966;2023-05-10T00:30:44;1.00;;;1.00;;
10078;SDS011;5078;42.544;22.966;2023-05-10T00:33:10;1.00;;;0.95;;
10078;SDS011;5078;42.544;22.966;2023-05-10T00:35:38;1.33;;;1.23;;
10078;SDS011;5078;42.544;22.966;2023-05-10T00:38:05;0.90;;;0.90;;
10078;SDS011;5078;42.544;22.966;2023-05-10T00:40:35;1.00;;;1.00;;
10078;SDS011;5078;42.544;22.966;2023-05-10T00:43:01;0.88;;;0.88;;
10078;SDS011;5078;42.544;22.966;2023-05-10T00:45:28;0.77;;;0.77;;
10078;SDS011;5078;42.544;22.966;2023-05-10T00:47:56;0.80;;;0.80;;
10078;SDS011;5078;42.544;22.966;2023-05-10T00:50:23;1.10;;;1.00;;
10078;SDS011;5078;42.544;22.966;2023-05-10T00:52:50;0.73;;;0.73;;
10078;SDS011;5078;42.544;22.966;2023-05-10T00:55:16;0.80;;;0.80;;
10078;SDS011;5078;42.544;22.966;2023-05-10T00:57:45;0.70;;;0.70;;
10078;SDS011;5078;42.544;22.966;2023-05-10T01:00:13;1.70;;;1.60;;
10078;SDS011;5078;42.544;22.966;2023-05-10T01:02:43;1.10;;;1.05;;
10078;SDS011;5078;42.544;22.966;2023-05-10T01:05:10;0.88;;;0.88;;
10078;SDS011;5078;42.544;22.966;2023-05-10T01:07:37;1.13;;;1.13;;
10078;SDS011;5078;42.544;22.966;2023-05-10T01:10:04;0.80;;;0.80;;
10078;SDS011;5078;42.544;22.966;2023-05-10T01:12:32;0.98;;;0.98;;
10078;SDS011;5078;42.544;22.966;2023-05-10T01:15:01;1.05;;;1.05;;
10078;SDS011;5078;42.544;22.966;2023-05-10T01:17:28;1.05;;;0.90;;
10078;SDS011;5078;42.544;22.966;2023-05-10T01:19:55;0.80;;;0.80;;
10078;SDS011;5078;42.544;22.966;2023-05-10T01:22:37;1.20;;;1.10;;
10078;SDS011;5078;42.544;22.966;2023-05-10T01:25:29;0.68;;;0.68;;
10078;SDS011;5078;42.544;22.966;2023-05-10T01:28:12;1.05;;;1.00;;
10078;SDS011;5078;42.544;22.966;2023-05-10T01:33:57;0.95;;;0.95;;
10078;SDS011;5078;42.544;22.966;2023-05-10T01:36:30;1.52;;;1.42;;
10078;SDS011;5078;42.544;22.966;2023-05-10T01:39:01;0.90;;;0.90;;
10078;SDS011;5078;42.544;22.966;2023-05-10T01:41:33;0.80;;;0.80;;
10078;SDS011;5078;42.544;22.966;2023-05-10T01:44:08;1.10;;;1.10;;
10078;SDS011;5078;42.544;22.966;2023-05-10T01:46:42;1.27;;;1.15;;
10078;SDS011;5078;42.544;22.966;2023-05-10T01:49:11;0.75;;;0.75;;
10078;SDS011;5078;42.544;22.966;2023-05-10T01:51:44;0.90;;;0.90;;
10078;SDS011;5078;42.544;22.966;2023-05-10T01:54:14;2.00;;;1.50;;
10078;SDS011;5078;42.544;22.966;2023-05-10T01:56:45;0.88;;;0.88;;
10078;SDS011;5078;42.544;22.966;2023-05-10T01:59:17;1.20;;;1.10;;
10078;SDS011;5078;42.544;22.966;2023-05-10T02:01:45;0.70;;;0.70;;
10078;SDS011;5078;42.544;22.966;2023-05-10T02:04:15;1.10;;;1.10;;
10078;SDS011;5078;42.544;22.966;2023-05-10T02:06:43;1.17;;;1.10;;
10078;SDS011;5078;42.544;22.966;2023-05-10T02:09:12;0.90;;;0.90;;
10078;SDS011;5078;42.544;22.966;2023-05-10T02:11:41;1.00;;;1.00;;
10078;SDS011;5078;42.544;22.966;2023-05-10T02:14:10;1.05;;;1.05;;
10078;SDS011;5078;42.544;22.966;2023-05-10T02:16:38;0.95;;;0.95;;
10078;SDS011;5078;42.544;22.966;2023-05-10T02:19:06;1.35;;;0.95;;
10078;SDS011;5078;42.544;22.966;2023-05-10T02:21:37;1.45;;;1.35;;
10078;SDS011;5078;42.544;22.966;2023-05-10T02:24:07;1.13;;;1.13;;
10078;SDS011;5078;42.544;22.966;2023-05-10T02:26:37;1.00;;;1.00;;
10078;SDS011;5078;42.544;22.966;2023-05-10T02:29:09;1.13;;;1.13;;
10078;SDS011;5078;42.544;22.966;2023-05-10T02:31:37;1.50;;;1.13;;
10078;SDS011;5078;42.544;22.966;2023-05-10T02:34:06;0.93;;;0.93;;
10078;SDS011;5078;42.544;22.966;2023-05-10T02:36:38;0.70;;;0.70;;
10078;SDS011;5078;42.544;22.966;2023-05-10T02:39:07;1.17;;;1.17;;
10078;SDS011;5078;42.544;22.966;2023-05-10T02:41:37;1.08;;;1.08;;
10078;SDS011;5078;42.544;22.966;2023-05-10T02:44:08;0.90;;;0.90;;
10078;SDS011;5078;42.544;22.966;2023-05-10T02:46:40;1.40;;;1.05;;
10078;SDS011;5078;42.544;22.966;2023-05-10T02:49:14;1.50;;;1.40;;
10078;SDS011;5078;42.544;22.966;2023-05-10T02:51:49;1.23;;;1.13;;
10078;SDS011;5078;42.544;22.966;2023-05-10T02:54:20;1.08;;;1.08;;
10078;SDS011;5078;42.544;22.966;2023-05-10T02:56:53;1.15;;;1.15;;
10078;SDS011;5078;42.544;22.966;2023-05-10T02:59:24;1.00;;;0.85;;
10078;SDS011;5078;42.544;22.966;2023-05-10T03:01:53;1.00;;;1.00;;
10078;SDS011;5078;42.544;22.966;2023-05-10T03:04:20;0.80;;;0.80;;
10078;SDS011;5078;42.544;22.966;2023-05-10T03:06:46;1.00;;;1.00;;
10078;SDS011;5078;42.544;22.966;2023-05-10T03:09:15;0.70;;;0.70;;
10078;SDS011;5078;42.544;22.966;2023-05-10T03:11:47;1.00;;;1.00;;
10078;SDS011;5078;42.544;22.966;2023-05-10T03:14:24;0.77;;;0.77;;
10078;SDS011;5078;42.544;22.966;2023-05-10T03:17:02;0.70;;;0.70;;
10078;SDS011;5078;42.544;22.966;2023-05-10T03:19:37;0.70;;;0.70;;
10078;SDS011;5078;42.544;22.966;2023-05-10T03:22:11;0.70;;;0.70;;
10078;SDS011;5078;42.544;22.966;2023-05-10T03:24:41;0.80;;;0.80;;
10078;SDS011;5078;42.544;22.966;2023-05-10T03:27:09;0.75;;;0.75;;
10078;SDS011;5078;42.544;22.966;2023-05-10T03:29:36;0.70;;;0.70;;
10078;SDS011;5078;42.544;22.966;2023-05-10T03:32:05;0.70;;;0.70;;
10078;SDS011;5078;42.544;22.966;2023-05-10T03:34:32;0.70;;;0.70;;
10078;SDS011;5078;42.544;22.966;2023-05-10T03:36:58;0.63;;;0.63;;
10078;SDS011;5078;42.544;22.966;2023-05-10T03:39:26;0.88;;;0.88;;
10078;SDS011;5078;42.544;22.966;2023-05-10T03:41:53;0.70;;;0.70;;
10078;SDS011;5078;42.544;22.966;2023-05-10T03:44:20;0.90;;;0.90;;
10078;SDS011;5078;42.544;22.966;2023-05-10T03:46:46;0.90;;;0.90;;
10078;SDS011;5078;42.544;22.966;2023-05-10T03:49:13;0.82;;;0.82;;
10078;SDS011;5078;42.544;22.966;2023-05-10T03:51:40;0.90;;;0.90;;
10078;SDS011;5078;42.544;22.966;2023-05-10T03:54:07;0.85;;;0.85;;
10078;SDS011;5078;42.544;22.966;2023-05-10T03:56:35;0.60;;;0.60;;
10078;SDS011;5078;42.544;22.966;2023-05-10T03:59:02;0.95;;;0.95;;
10078;SDS011;5078;42.544;22.966;2023-05-10T04:01:32;0.88;;;0.88;;
10078;SDS011;5078;42.544;22.966;2023-05-10T04:03:59;0.85;;;0.85;;
10078;SDS011;5078;42.544;22.966;2023-05-10T04:06:25;0.80;;;0.80;;
10078;SDS011;5078;42.544;22.966;2023-05-10T04:08:52;1.63;;;1.52;;
10078;SDS011;5078;42.544;22.966;2023-05-10T04:11:20;0.93;;;0.93;;
10078;SDS011;5078;42.544;22.966;2023-05-10T04:13:49;0.95;;;0.95;;
10078;SDS011;5078;42.544;22.966;2023-05-10T04:16:15;0.98;;;0.98;;
10078;SDS011;5078;42.544;22.966;2023-05-10T04:18:42;0.80;;;0.80;;
10078;SDS011;5078;42.544;22.966;2023-05-10T04:21:11;0.70;;;0.70;;
10078;SDS011;5078;42.544;22.966;2023-05-10T04:23:38;1.15;;;1.08;;
10078;SDS011;5078;42.544;22.966;2023-05-10T04:26:05;0.70;;;0.70;;
10078;SDS011;5078;42.544;22.966;2023-05-10T04:28:32;0.77;;;0.77;;
10078;SDS011;5078;42.544;22.966;2023-05-10T04:31:03;1.00;;;1.00;;
10078;SDS011;5078;42.544;22.966;2023-05-10T04:33:30;0.80;;;0.80;;
10078;SDS011;5078;42.544;22.966;2023-05-10T04:35:58;0.80;;;0.80;;
10078;SDS011;5078;42.544;22.966;2023-05-10T04:38:24;0.80;;;0.80;;
10078;SDS011;5078;42.544;22.966;2023-05-10T04:40:52;0.80;;;0.80;;
10078;SDS011;5078;42.544;22.966;2023-05-10T04:43:18;0.95;;;0.95;;
10078;SDS011;5078;42.544;22.966;2023-05-10T04:45:45;0.70;;;0.70;;
10078;SDS011;5078;42.544;22.966;2023-05-10T04:48:13;0.60;;;0.60;;
10078;SDS011;5078;42.544;22.966;2023-05-10T04:50:40;0.80;;;0.80;;
10078;SDS011;5078;42.544;22.966;2023-05-10T04:53:07;0.95;;;0.95;;
10078;SDS011;5078;42.544;22.966;2023-05-10T04:55:33;0.80;;;0.80;;
10078;SDS011;5078;42.544;22.966;2023-05-10T04:58:00;1.10;;;1.10;;
10078;SDS011;5078;42.544;22.966;2023-05-10T05:00:27;0.93;;;0.93;;
10078;SDS011;5078;42.544;22.966;2023-05-10T05:02:54;1.42;;;1.33;;
10078;SDS011;5078;42.544;22.966;2023-05-10T05:05:22;1.08;;;1.08;;
10078;SDS011;5078;42.544;22.966;2023-05-10T05:07:49;1.30;;;1.30;;
10078;SDS011;5078;42.544;22.966;2023-05-10T05:10:16;1.23;;;1.13;;
10078;SDS011;5078;42.544;22.966;2023-05-10T05:12:43;1.27;;;1.25;;
10078;SDS011;5078;42.544;22.966;2023-05-10T05:15:10;1.17;;;1.17;;
10078;SDS011;5078;42.544;22.966;2023-05-10T05:17:38;0.90;;;0.90;;
10078;SDS011;5078;42.544;22.966;2023-05-10T05:20:05;1.00;;;1.00;;
10078;SDS011;5078;42.544;22.966;2023-05-10T05:22:35;1.05;;;1.05;;
10078;SDS011;5078;42.544;22.966;2023-05-10T05:25:02;1.40;;;1.30;;
10078;SDS011;5078;42.544;22.966;2023-05-10T05:27:29;1.15;;;1.13;;
10078;SDS011;5078;42.544;22.966;2023-05-10T05:29:56;1.50;;;1.40;;
10078;SDS011;5078;42.544;22.966;2023-05-10T05:32:23;2.63;;;1.20;;
10078;SDS011;5078;42.544;22.966;2023-05-10T05:34:50;1.33;;;1.23;;
10078;SDS011;5078;42.544;22.966;2023-05-10T05:37:19;1.95;;;1.85;;
10078;SDS011;5078;42.544;22.966;2023-05-10T05:39:48;0.95;;;0.95;;
10078;SDS011;5078;42.544;22.966;2023-05-10T05:42:15;0.80;;;0.80;;
10078;SDS011;5078;42.544;22.966;2023-05-10T05:44:43;2.17;;;1.58;;
10078;SDS011;5078;42.544;22.966;2023-05-10T05:47:10;2.17;;;1.38;;
10078;SDS011;5078;42.544;22.966;2023-05-10T05:49:37;1.25;;;1.17;;
10078;SDS011;5078;42.544;22.966;2023-05-10T05:52:04;1.92;;;1.38;;
10078;SDS011;5078;42.544;22.966;2023-05-10T05:54:31;1.27;;;1.23;;
10078;SDS011;5078;42.544;22.966;2023-05-10T05:56:59;1.30;;;1.23;;
10078;SDS011;5078;42.544;22.966;2023-05-10T05:59:26;1.08;;;1.08;;
10078;SDS011;5078;42.544;22.966;2023-05-10T06:01:53;3.42;;;1.77;;
10078;SDS011;5078;42.544;22.966;2023-05-10T06:04:20;1.58;;;1.48;;
10078;SDS011;5078;42.544;22.966;2023-05-10T06:06:47;1.98;;;1.83;;
10078;SDS011;5078;42.544;22.966;2023-05-10T06:09:13;1.17;;;0.98;;
10078;SDS011;5078;42.544;22.966;2023-05-10T06:11:41;1.67;;;1.23;;
10078;SDS011;5078;42.544;22.966;2023-05-10T06:14:09;1.35;;;1.25;;
10078;SDS011;5078;42.544;22.966;2023-05-10T06:16:36;1.42;;;1.33;;
10078;SDS011;5078;42.544;22.966;2023-05-10T06:19:03;1.35;;;1.25;;
10078;SDS011;5078;42.544;22.966;2023-05-10T06:21:30;1.35;;;1.25;;
10078;SDS011;5078;42.544;22.966;2023-05-10T06:23:56;1.42;;;1.33;;
10078;SDS011;5078;42.544;22.966;2023-05-10T06:26:23;1.80;;;1.10;;
10078;SDS011;5078;42.544;22.966;2023-05-10T06:28:52;1.20;;;1.10;;
10078;SDS011;5078;42.544;22.966;2023-05-10T06:31:20;1.73;;;1.63;;
10078;SDS011;5078;42.544;22.966;2023-05-10T06:33:47;1.67;;;1.48;;
10078;SDS011;5078;42.544;22.966;2023-05-10T06:36:13;1.95;;;1.55;;
10078;SDS011;5078;42.544;22.966;2023-05-10T06:38:40;0.88;;;0.88;;
10078;SDS011;5078;42.544;22.966;2023-05-10T06:41:07;1.20;;;1.13;;
10078;SDS011;5078;42.544;22.966;2023-05-10T06:43:34;1.45;;;1.35;;
10078;SDS011;5078;42.544;22.966;2023-05-10T06:46:00;1.42;;;1.40;;
10078;SDS011;5078;42.544;22.966;2023-05-10T06:48:28;1.50;;;1.40;;
10078;SDS011;5078;42.544;22.966;2023-05-10T06:50:55;1.63;;;1.52;;
10078;SDS011;5078;42.544;22.966;2023-05-10T06:53:22;1.20;;;1.20;;
10078;SDS011;5078;42.544;22.966;2023-05-10T06:55:49;1.10;;;1.10;;
10078;SDS011;5078;42.544;22.966;2023-05-10T06:58:16;1.52;;;1.42;;
10078;SDS011;5078;42.544;22.966;2023-05-10T07:00:42;1.15;;;1.15;;
10078;SDS011;5078;42.544;22.966;2023-05-10T07:03:10;1.58;;;1.48;;
10078;SDS011;5078;42.544;22.966;2023-05-10T07:05:38;1.55;;;1.45;;
10078;SDS011;5078;42.544;22.966;2023-05-10T07:08:05;3.78;;;1.77;;
10078;SDS011;5078;42.544;22.966;2023-05-10T07:10:32;1.27;;;1.17;;
10078;SDS011;5078;42.544;22.966;2023-05-10T07:12:59;1.40;;;1.30;;
10078;SDS011;5078;42.544;22.966;2023-05-10T07:15:26;1.95;;;1.77;;
10078;SDS011;5078;42.544;22.966;2023-05-10T07:17:53;1.10;;;1.10;;
10078;SDS011;5078;42.544;22.966;2023-05-10T07:20:20;1.83;;;1.73;;
10078;SDS011;5078;42.544;22.966;2023-05-10T07:22:48;1.02;;;1.02;;
10078;SDS011;5078;42.544;22.966;2023-05-10T07:25:15;1.58;;;1.27;;
10078;SDS011;5078;42.544;22.966;2023-05-10T07:27:42;2.38;;;2.20;;
10078;SDS011;5078;42.544;22.966;2023-05-10T07:30:09;1.98;;;1.88;;
10078;SDS011;5078;42.544;22.966;2023-05-10T07:32:36;1.42;;;1.20;;
10078;SDS011;5078;42.544;22.966;2023-05-10T07:35:04;1.23;;;1.17;;
10078;SDS011;5078;42.544;22.966;2023-05-10T07:37:31;1.48;;;1.38;;
10078;SDS011;5078;42.544;22.966;2023-05-10T07:40:00;2.53;;;2.28;;
10078;SDS011;5078;42.544;22.966;2023-05-10T07:42:27;1.33;;;1.23;;
10078;SDS011;5078;42.544;22.966;2023-05-10T07:44:53;1.25;;;1.25;;
10078;SDS011;5078;42.544;22.966;2023-05-10T07:47:20;0.95;;;0.95;;
10078;SDS011;5078;42.544;22.966;2023-05-10T07:49:47;1.55;;;1.45;;
10078;SDS011;5078;42.544;22.966;2023-05-10T07:52:13;1.48;;;1.38;;
10078;SDS011;5078;42.544;22.966;2023-05-10T07:54:40;2.25;;;2.10;;
10078;SDS011;5078;42.544;22.966;2023-05-10T07:57:08;1.13;;;1.13;;
10078;SDS011;5078;42.544;22.966;2023-05-10T07:59:35;1.05;;;1.05;;
10078;SDS011;5078;42.544;22.966;2023-05-10T08:02:02;1.02;;;1.02;;
10078;SDS011;5078;42.544;22.966;2023-05-10T08:04:29;1.25;;;1.20;;
10078;SDS011;5078;42.544;22.966;2023-05-10T08:06:56;1.98;;;1.88;;
10078;SDS011;5078;42.544;22.966;2023-05-10T08:09:22;0.82;;;0.82;;
10078;SDS011;5078;42.544;22.966;2023-05-10T08:11:49;1.50;;;1.40;;
10078;SDS011;5078;42.544;22.966;2023-05-10T08:14:17;1.38;;;1.30;;
10078;SDS011;5078;42.544;22.966;2023-05-10T08:16:44;1.33;;;1.25;;
10078;SDS011;5078;42.544;22.966;2023-05-10T08:19:11;1.45;;;1.35;;
10078;SDS011;5078;42.544;22.966;2023-05-10T08:21:38;2.28;;;1.98;;
10078;SDS011;5078;42.544;22.966;2023-05-10T08:24:05;0.88;;;0.88;;
10078;SDS011;5078;42.544;22.966;2023-05-10T08:26:33;1.30;;;1.20;;
10078;SDS011;5078;42.544;22.966;2023-05-10T08:29:00;2.10;;;1.92;;
10078;SDS011;5078;42.544;22.966;2023-05-10T08:31:28;1.35;;;1.25;;
10078;SDS011;5078;42.544;22.966;2023-05-10T08:33:54;1.85;;;1.55;;
10078;SDS011;5078;42.544;22.966;2023-05-10T08:36:21;2.28;;;1.65;;
10078;SDS011;5078;42.544;22.966;2023-05-10T08:38:49;2.25;;;1.98;;
10078;SDS011;5078;42.544;22.966;2023-05-10T08:41:17;2.17;;;2.03;;
10078;SDS011;5078;42.544;22.966;2023-05-10T08:43:46;1.40;;;1.30;;
10078;SDS011;5078;42.544;22.966;2023-05-10T08:46:13;3.72;;;1.90;;
10078;SDS011;5078;42.544;22.966;2023-05-10T08:48:45;1.60;;;1.50;;
10078;SDS011;5078;42.544;22.966;2023-05-10T08:51:13;2.05;;;1.88;;
10078;SDS011;5078;42.544;22.966;2023-05-10T08:53:41;1.77;;;1.67;;
10078;SDS011;5078;42.544;22.966;2023-05-10T08:56:08;1.10;;;1.10;;
10078;SDS011;5078;42.544;22.966;2023-05-10T08:58:35;1.70;;;1.60;;
10078;SDS011;5078;42.544;22.966;2023-05-10T09:01:02;1.23;;;1.23;;
10078;SDS011;5078;42.544;22.966;2023-05-10T09:03:29;1.65;;;1.55;;
10078;SDS011;5078;42.544;22.966;2023-05-10T09:05:58;1.55;;;1.30;;
10078;SDS011;5078;42.544;22.966;2023-05-10T09:08:25;1.65;;;1.55;;
10078;SDS011;5078;42.544;22.966;2023-05-10T09:10:52;2.65;;;1.42;;
10078;SDS011;5078;42.544;22.966;2023-05-10T09:13:20;2.20;;;1.90;;
10078;SDS011;5078;42.544;22.966;2023-05-10T09:15:48;2.03;;;1.58;;
10078;SDS011;5078;42.544;22.966;2023-05-10T09:18:15;1.00;;;1.00;;
10078;SDS011;5078;42.544;22.966;2023-05-10T09:20:42;1.30;;;1.25;;
10078;SDS011;5078;42.544;22.966;2023-05-10T09:23:10;1.70;;;1.60;;
10078;SDS011;5078;42.544;22.966;2023-05-10T09:25:37;1.88;;;1.23;;
10078;SDS011;5078;42.544;22.966;2023-05-10T09:28:05;1.48;;;1.38;;
10078;SDS011;5078;42.544;22.966;2023-05-10T09:30:35;3.60;;;1.58;;
10078;SDS011;5078;42.544;22.966;2023-05-10T09:33:02;1.27;;;1.20;;
10078;SDS011;5078;42.544;22.966;2023-05-10T09:35:29;0.90;;;0.90;;
10078;SDS011;5078;42.544;22.966;2023-05-10T09:37:57;1.35;;;1.25;;
10078;SDS011;5078;42.544;22.966;2023-05-10T09:40:27;0.95;;;0.95;;
10078;SDS011;5078;42.544;22.966;2023-05-10T09:42:56;1.05;;;1.05;;
10078;SDS011;5078;42.544;22.966;2023-05-10T09:45:24;2.72;;;2.22;;
10078;SDS011;5078;42.544;22.966;2023-05-10T09:47:52;2.00;;;1.80;;
10078;SDS011;5078;42.544;22.966;2023-05-10T09:50:19;1.30;;;1.20;;
10078;SDS011;5078;42.544;22.966;2023-05-10T09:52:48;2.55;;;1.65;;
10078;SDS011;5078;42.544;22.966;2023-05-10T09:55:17;1.40;;;1.30;;
10078;SDS011;5078;42.544;22.966;2023-05-10T09:57:46;1.27;;;1.17;;
10078;SDS011;5078;42.544;22.966;2023-05-10T10:00:17;2.35;;;1.20;;
10078;SDS011;5078;42.544;22.966;2023-05-10T10:02:45;1.67;;;1.15;;
10078;SDS011;5078;42.544;22.966;2023-05-10T10:05:13;1.55;;;1.45;;
10078;SDS011;5078;42.544;22.966;2023-05-10T10:07:39;1.27;;;1.27;;
10078;SDS011;5078;42.544;22.966;2023-05-10T10:10:07;2.50;;;1.92;;
10078;SDS011;5078;42.544;22.966;2023-05-10T10:12:37;0.95;;;0.95;;
10078;SDS011;5078;42.544;22.966;2023-05-10T10:15:07;1.40;;;1.33;;
10078;SDS011;5078;42.544;22.966;2023-05-10T10:17:35;1.52;;;1.42;;
10078;SDS011;5078;42.544;22.966;2023-05-10T10:20:03;1.48;;;1.38;;
10078;SDS011;5078;42.544;22.966;2023-05-10T10:22:30;1.63;;;1.50;;
10078;SDS011;5078;42.544;22.966;2023-05-10T10:24:57;1.63;;;1.10;;
10078;SDS011;5078;42.544;22.966;2023-05-10T10:27:26;1.48;;;1.38;;
10078;SDS011;5078;42.544;22.966;2023-05-10T10:30:02;1.90;;;1.80;;
10078;SDS011;5078;42.544;22.966;2023-05-10T10:32:42;1.38;;;1.35;;
10078;SDS011;5078;42.544;22.966;2023-05-10T10:35:26;1.63;;;1.52;;
10078;SDS011;5078;42.544;22.966;2023-05-10T10:37:55;1.30;;;1.23;;
10078;SDS011;5078;42.544;22.966;2023-05-10T10:40:23;1.50;;;1.35;;
10078;SDS011;5078;42.544;22.966;2023-05-10T10:42:51;1.48;;;1.38;;
10078;SDS011;5078;42.544;22.966;2023-05-10T10:45:19;1.38;;;1.27;;
10078;SDS011;5078;42.544;22.966;2023-05-10T10:47:48;1.73;;;1.63;;
10078;SDS011;5078;42.544;22.966;2023-05-10T10:50:16;1.45;;;1.35;;
10078;SDS011;5078;42.544;22.966;2023-05-10T10:52:43;2.25;;;2.15;;
10078;SDS011;5078;42.544;22.966;2023-05-10T10:55:11;2.83;;;2.63;;
10078;SDS011;5078;42.544;22.966;2023-05-10T10:57:43;1.60;;;1.50;;
10078;SDS011;5078;42.544;22.966;2023-05-10T11:00:18;1.20;;;1.20;;
10078;SDS011;5078;42.544;22.966;2023-05-10T11:02:51;2.45;;;2.20;;
10078;SDS011;5078;42.544;22.966;2023-05-10T11:05:22;2.15;;;2.05;;
10078;SDS011;5078;42.544;22.966;2023-05-10T11:07:51;1.30;;;1.20;;
10078;SDS011;5078;42.544;22.966;2023-05-10T11:10:19;1.73;;;1.63;;
10078;SDS011;5078;42.544;22.966;2023-05-10T11:12:52;1.65;;;1.55;;
10078;SDS011;5078;42.544;22.966;2023-05-10T11:15:27;1.50;;;1.40;;
10078;SDS011;5078;42.544;22.966;2023-05-10T11:17:56;1.88;;;1.77;;
10078;SDS011;5078;42.544;22.966;2023-05-10T11:20:23;1.77;;;1.67;;
10078;SDS011;5078;42.544;22.966;2023-05-10T11:22:58;1.60;;;1.40;;
10078;SDS011;5078;42.544;22.966;2023-05-10T11:25:40;2.38;;;2.22;;
10078;SDS011;5078;42.544;22.966;2023-05-10T11:28:08;3.00;;;2.42;;
10078;SDS011;5078;42.544;22.966;2023-05-10T11:30:34;2.15;;;1.95;;
10078;SDS011;5078;42.544;22.966;2023-05-10T11:33:03;1.92;;;1.83;;
10078;SDS011;5078;42.544;22.966;2023-05-10T11:35:30;1.95;;;1.85;;
10078;SDS011;5078;42.544;22.966;2023-05-10T11:37:57;1.35;;;1.30;;
10078;SDS011;5078;42.544;22.966;2023-05-10T11:40:23;1.27;;;1.25;;
10078;SDS011;5078;42.544;22.966;2023-05-10T11:42:51;1.75;;;1.65;;
10078;SDS011;5078;42.544;22.966;2023-05-10T11:45:18;2.58;;;2.40;;
10078;SDS011;5078;42.544;22.966;2023-05-10T11:47:48;2.72;;;2.53;;
10078;SDS011;5078;42.544;22.966;2023-05-10T11:50:16;1.45;;;1.35;;
10078;SDS011;5078;42.544;22.966;2023-05-10T11:52:43;2.75;;;2.28;;
10078;SDS011;5078;42.544;22.966;2023-05-10T11:55:10;2.55;;;2.45;;
10078;SDS011;5078;42.544;22.966;2023-05-10T11:57:38;1.48;;;1.38;;
10078;SDS011;5078;42.544;22.966;2023-05-10T12:00:07;2.85;;;2.40;;
10078;SDS011;5078;42.544;22.966;2023-05-10T12:02:34;4.57;;;2.70;;
10078;SDS011;5078;42.544;22.966;2023-05-10T12:05:01;2.55;;;2.35;;
10078;SDS011;5078;42.544;22.966;2023-05-10T12:07:30;1.67;;;1.50;;
10078;SDS011;5078;42.544;22.966;2023-05-10T12:10:04;2.20;;;1.90;;
10078;SDS011;5078;42.544;22.966;2023-05-10T12:12:38;2.53;;;2.33;;
10078;SDS011;5078;42.544;22.966;2023-05-10T12:15:10;1.52;;;1.42;;
10078;SDS011;5078;42.544;22.966;2023-05-10T12:17:38;2.80;;;2.17;;
10078;SDS011;5078;42.544;22.966;2023-05-10T12:20:15;1.20;;;1.17;;
10078;SDS011;5078;42.544;22.966;2023-05-10T12:22:45;2.00;;;1.75;;
10078;SDS011;5078;42.544;22.966;2023-05-10T12:25:16;2.08;;;1.90;;
10078;SDS011;5078;42.544;22.966;2023-05-10T12:27:50;3.40;;;2.42;;
10078;SDS011;5078;42.544;22.966;2023-05-10T12:30:21;3.47;;;3.17;;
10078;SDS011;5078;42.544;22.966;2023-05-10T12:32:48;2.65;;;2.45;;
10078;SDS011;5078;42.544;22.966;2023-05-10T12:35:16;1.90;;;1.80;;
10078;SDS011;5078;42.544;22.966;2023-05-10T12:37:47;2.08;;;1.95;;
10078;SDS011;5078;42.544;22.966;2023-05-10T12:40:14;1.98;;;1.88;;
10078;SDS011;5078;42.544;22.966;2023-05-10T12:42:41;1.55;;;1.45;;
10078;SDS011;5078;42.544;22.966;2023-05-10T12:45:10;1.88;;;1.70;;
10078;SDS011;5078;42.544;22.966;2023-05-10T12:47:37;1.35;;;1.25;;
10078;SDS011;5078;42.544;22.966;2023-05-10T12:50:05;2.20;;;1.92;;
10078;SDS011;5078;42.544;22.966;2023-05-10T12:52:32;3.60;;;2.88;;
10078;SDS011;5078;42.544;22.966;2023-05-10T12:55:00;1.80;;;1.70;;
10078;SDS011;5078;42.544;22.966;2023-05-10T12:57:28;2.65;;;1.77;;
10078;SDS011;5078;42.544;22.966;2023-05-10T12:59:54;2.42;;;2.22;;
10078;SDS011;5078;42.544;22.966;2023-05-10T13:02:21;3.78;;;3.47;;
10078;SDS011;5078;42.544;22.966;2023-05-10T13:04:48;1.90;;;1.80;;
10078;SDS011;5078;42.544;22.966;2023-05-10T13:07:17;2.90;;;2.70;;
10078;SDS011;5078;42.544;22.966;2023-05-10T13:09:44;1.95;;;1.85;;
10078;SDS011;5078;42.544;22.966;2023-05-10T13:12:12;1.98;;;1.88;;
10078;SDS011;5078;42.544;22.966;2023-05-10T13:14:39;2.90;;;2.63;;
10078;SDS011;5078;42.544;22.966;2023-05-10T13:17:06;2.20;;;1.90;;
10078;SDS011;5078;42.544;22.966;2023-05-10T13:19:33;2.95;;;2.10;;
10078;SDS011;5078;42.544;22.966;2023-05-10T13:22:00;1.20;;;1.20;;
10078;SDS011;5078;42.544;22.966;2023-05-10T13:24:27;3.15;;;2.85;;
10078;SDS011;5078;42.544;22.966;2023-05-10T13:26:53;3.10;;;2.78;;
10078;SDS011;5078;42.544;22.966;2023-05-10T13:29:21;3.35;;;2.97;;
10078;SDS011;5078;42.544;22.966;2023-05-10T13:31:48;2.60;;;2.40;;
10078;SDS011;5078;42.544;22.966;2023-05-10T13:34:15;1.88;;;1.77;;
10078;SDS011;5078;42.544;22.966;2023-05-10T13:36:42;2.33;;;2.10;;
10078;SDS011;5078;42.544;22.966;2023-05-10T13:39:08;2.03;;;1.92;;
10078;SDS011;5078;42.544;22.966;2023-05-10T13:41:35;2.88;;;2.33;;
10078;SDS011;5078;42.544;22.966;2023-05-10T13:44:02;3.28;;;2.53;;
10078;SDS011;5078;42.544;22.966;2023-05-10T13:46:30;2.85;;;2.65;;
10078;SDS011;5078;42.544;22.966;2023-05-10T13:48:57;2.70;;;2.17;;
10078;SDS011;5078;42.544;22.966;2023-05-10T13:51:23;3.05;;;2.13;;
10078;SDS011;5078;42.544;22.966;2023-05-10T13:53:50;2.40;;;2.00;;
10078;SDS011;5078;42.544;22.966;2023-05-10T13:59:06;3.47;;;3.17;;
10078;SDS011;5078;42.544;22.966;2023-05-10T14:01:34;2.75;;;2.55;;
10078;SDS011;5078;42.544;22.966;2023-05-10T14:04:01;2.38;;;2.17;;
10078;SDS011;5078;42.544;22.966;2023-05-10T14:06:28;1.77;;;1.67;;
10078;SDS011;5078;42.544;22.966;2023-05-10T14:08:55;2.35;;;2.20;;
10078;SDS011;5078;42.544;22.966;2023-05-10T14:11:22;3.08;;;2.78;;
10078;SDS011;5078;42.544;22.966;2023-05-10T14:13:49;2.42;;;2.25;;
10078;SDS011;5078;42.544;22.966;2023-05-10T14:16:16;1.63;;;1.45;;
10078;SDS011;5078;42.544;22.966;2023-05-10T14:18:44;2.53;;;2.33;;
10078;SDS011;5078;42.544;22.966;2023-05-10T14:21:10;2.70;;;2.50;;
10078;SDS011;5078;42.544;22.966;2023-05-10T14:23:37;2.45;;;2.35;;
10078;SDS011;5078;42.544;22.966;2023-05-10T14:26:04;3.42;;;3.15;;
10078;SDS011;5078;42.544;22.966;2023-05-10T14:28:31;1.63;;;1.52;;
10078;SDS011;5078;42.544;22.966;2023-05-10T14:30:58;2.88;;;1.88;;
10078;SDS011;5078;42.544;22.966;2023-05-10T14:33:25;1.95;;;1.83;;
10078;SDS011;5078;42.544;22.966;2023-05-10T14:35:53;2.15;;;2.05;;
10078;SDS011;5078;42.544;22.966;2023-05-10T14:38:21;1.73;;;1.63;;
10078;SDS011;5078;42.544;22.966;2023-05-10T14:40:48;2.85;;;2.65;;
10078;SDS011;5078;42.544;22.966;2023-05-10T14:43:15;2.67;;;2.45;;
10078;SDS011;5078;42.544;22.966;2023-05-10T14:45:41;2.05;;;1.80;;
10078;SDS011;5078;42.544;22.966;2023-05-10T14:48:08;1.88;;;1.77;;
10078;SDS011;5078;42.544;22.966;2023-05-10T14:50:40;2.13;;;1.92;;
10078;SDS011;5078;42.544;22.966;2023-05-10T14:56:06;1.23;;;1.20;;
10078;SDS011;5078;42.544;22.966;2023-05-10T14:58:33;2.22;;;2.13;;
10078;SDS011;5078;42.544;22.966;2023-05-10T15:00:59;1.70;;;1.60;;
10078;SDS011;5078;42.544;22.966;2023-05-10T15:03:26;1.88;;;1.40;;